createdAt,value
2019-02-25T00:01:14.339Z,51.38
2019-02-25T00:03:41.081Z,52.22
2019-02-25T00:06:07.867Z,53.44
2019-02-25T00:08:34.609Z,53.07
2019-02-25T00:11:01.330Z,54.51
2019-02-25T00:13:28.066Z,55.02
2019-02-25T00:15:54.787Z,55.24
2019-02-25T00:18:21.557Z,55.07
2019-02-25T00:20:48.291Z,55.63
2019-02-25T00:23:15.019Z,56.80
2019-02-25T00:25:41.734Z,56.41
2019-02-25T00:28:08.465Z,54.38
2019-02-25T00:30:35.191Z,55.24
2019-02-25T00:33:01.940Z,56.15
2019-02-25T00:35:28.650Z,56.33
2019-02-25T00:37:55.398Z,55.98
2019-02-25T00:40:22.242Z,56.07
2019-02-25T00:42:48.960Z,54.41
2019-02-25T00:45:19.645Z,55.21
2019-02-25T00:47:46.293Z,55.32
2019-02-25T00:50:13.066Z,54.90
2019-02-25T00:52:39.836Z,53.84
2019-02-25T00:55:06.751Z,52.80
2019-02-25T00:57:33.494Z,53.21
2019-02-25T01:00:00.355Z,51.97
2019-02-25T01:02:27.122Z,52.11
2019-02-25T01:04:54.738Z,51.72
2019-02-25T01:07:21.470Z,50.73
2019-02-25T01:09:48.218Z,50.60
2019-02-25T01:12:14.933Z,50.73
2019-02-25T01:14:41.661Z,50.74
2019-02-25T01:17:08.394Z,51.21
2019-02-25T01:19:35.117Z,51.74
2019-02-25T01:22:01.840Z,51.79
2019-02-25T01:24:28.607Z,52.55
2019-02-25T01:26:55.329Z,51.94
2019-02-25T01:29:22.098Z,51.18
2019-02-25T01:31:48.818Z,51.89
2019-02-25T01:34:15.548Z,52.10
2019-02-25T01:36:42.474Z,51.61
2019-02-25T01:39:09.198Z,51.38
2019-02-25T01:41:35.921Z,50.96
2019-02-25T01:44:02.682Z,50.80
2019-02-25T01:46:29.440Z,50.41
2019-02-25T01:48:56.199Z,50.91
2019-02-25T01:51:22.909Z,51.45
2019-02-25T01:53:49.630Z,52.06
2019-02-25T01:56:16.346Z,51.03
2019-02-25T01:58:43.085Z,51.59
2019-02-25T02:01:09.810Z,51.50
2019-02-25T02:03:36.542Z,51.70
2019-02-25T02:06:03.277Z,51.99
2019-02-25T02:08:30.106Z,52.40
2019-02-25T02:10:56.809Z,51.51
2019-02-25T02:13:23.543Z,51.02
2019-02-25T02:15:50.270Z,50.40
2019-02-25T02:18:17.003Z,49.95
2019-02-25T02:20:43.710Z,49.49
2019-02-25T02:23:10.486Z,49.68
2019-02-25T02:25:37.202Z,50.06
2019-02-25T02:28:04.010Z,49.84
2019-02-25T02:30:30.739Z,50.00
2019-02-25T02:32:57.450Z,49.79
2019-02-25T02:35:24.191Z,50.94
2019-02-25T02:37:50.910Z,51.71
2019-02-25T02:40:17.750Z,53.81
2019-02-25T02:42:47.154Z,55.82
2019-02-25T02:45:17.712Z,55.50
2019-02-25T02:47:56.438Z,54.55
2019-02-25T02:50:24.807Z,55.68
2019-02-25T02:52:51.515Z,53.34
2019-02-25T02:55:18.290Z,53.51
2019-02-25T02:57:45.009Z,52.74
2019-02-25T03:00:13.843Z,52.76
2019-02-25T03:02:40.553Z,52.67
2019-02-25T03:05:09.281Z,53.53
2019-02-25T03:07:35.998Z,53.52
2019-02-25T03:10:03.249Z,52.71
2019-02-25T03:12:29.954Z,53.95
2019-02-25T03:14:56.694Z,54.14
2019-02-25T03:17:23.429Z,53.12
2019-02-25T03:19:50.161Z,54.11
2019-02-25T03:22:16.962Z,54.18
2019-02-25T03:24:43.742Z,54.60
2019-02-25T03:27:10.461Z,55.19
2019-02-25T03:29:37.194Z,56.19
2019-02-25T03:32:03.899Z,56.99
2019-02-25T03:34:30.627Z,56.92
2019-02-25T03:36:57.357Z,56.54
2019-02-25T03:39:24.158Z,56.00
2019-02-25T03:41:50.888Z,55.66
2019-02-25T03:44:17.632Z,55.62
2019-02-25T03:46:44.365Z,55.21
2019-02-25T03:49:11.079Z,56.40
2019-02-25T03:51:37.805Z,55.71
2019-02-25T03:54:04.527Z,55.67
2019-02-25T03:56:31.251Z,55.11
2019-02-25T03:58:57.977Z,54.99
2019-02-25T04:01:24.705Z,54.25
2019-02-25T04:03:51.426Z,53.81
2019-02-25T04:06:18.212Z,53.74
2019-02-25T04:08:44.885Z,53.71
2019-02-25T04:11:11.603Z,53.84
2019-02-25T04:13:38.313Z,53.14
2019-02-25T04:16:05.058Z,53.50
2019-02-25T04:18:31.771Z,54.58
2019-02-25T04:20:58.494Z,55.10
2019-02-25T04:23:25.234Z,55.26
2019-02-25T04:25:51.954Z,55.09
2019-02-25T04:28:18.688Z,55.69
2019-02-25T04:30:45.418Z,55.06
2019-02-25T04:33:12.143Z,55.31
2019-02-25T04:35:38.890Z,55.36
2019-02-25T04:38:05.627Z,57.81
2019-02-25T04:40:32.354Z,57.40
2019-02-25T04:42:59.083Z,56.76
2019-02-25T04:45:25.827Z,57.26
2019-02-25T04:47:52.555Z,57.64
2019-02-25T04:50:19.312Z,57.86
2019-02-25T04:52:46.048Z,58.86
2019-02-25T04:55:12.799Z,57.89
2019-02-25T04:57:39.526Z,58.38
2019-02-25T05:00:09.651Z,58.11
2019-02-25T05:02:36.394Z,55.25
2019-02-25T05:05:03.230Z,56.83
2019-02-25T05:07:29.939Z,55.72
2019-02-25T05:09:56.690Z,55.66
2019-02-25T05:12:23.413Z,56.72
2019-02-25T05:14:50.192Z,57.81
2019-02-25T05:17:16.965Z,57.22
2019-02-25T05:19:43.696Z,56.11
2019-02-25T05:22:10.442Z,56.20
2019-02-25T05:24:37.165Z,56.75
2019-02-25T05:27:03.926Z,57.19
2019-02-25T05:29:30.643Z,58.16
2019-02-25T05:31:57.409Z,58.41
2019-02-25T05:34:24.126Z,57.71
2019-02-25T05:36:50.876Z,57.99
2019-02-25T05:39:17.606Z,58.59
2019-02-25T05:41:44.347Z,58.89
2019-02-25T05:44:11.078Z,56.67
2019-02-25T05:46:37.842Z,58.58
2019-02-25T05:49:04.563Z,56.73
2019-02-25T05:51:31.309Z,54.59
2019-02-25T05:53:58.049Z,58.78
2019-02-25T05:56:24.806Z,56.24
2019-02-25T05:58:51.533Z,55.66
2019-02-25T06:01:18.307Z,55.99
2019-02-25T06:03:45.025Z,54.36
2019-02-25T06:06:11.773Z,56.61
2019-02-25T06:08:38.494Z,56.46
2019-02-25T06:11:05.320Z,54.19
2019-02-25T06:13:32.046Z,55.82
2019-02-25T06:15:58.758Z,56.18
2019-02-25T06:18:25.467Z,56.65
2019-02-25T06:20:52.219Z,57.28
2019-02-25T06:23:18.953Z,58.61
2019-02-25T06:25:45.685Z,58.25
2019-02-25T06:28:12.400Z,56.79
2019-02-25T06:30:39.163Z,55.47
2019-02-25T06:33:05.877Z,55.53
2019-02-25T06:35:32.611Z,56.04
2019-02-25T06:37:59.362Z,56.22
2019-02-25T06:40:26.101Z,55.93
2019-02-25T06:42:52.840Z,56.65
2019-02-25T06:45:20.405Z,55.51
2019-02-25T06:47:47.270Z,55.82
2019-02-25T06:50:14.007Z,56.34
2019-02-25T06:52:40.926Z,57.00
2019-02-25T06:55:09.482Z,59.62
2019-02-25T06:57:36.201Z,59.67
2019-02-25T07:00:04.621Z,59.08
2019-02-25T07:02:31.371Z,59.57
2019-02-25T07:05:05.021Z,59.67
2019-02-25T07:07:49.065Z,57.89
2019-02-25T07:10:21.509Z,58.69
2019-02-25T07:12:54.077Z,58.24
2019-02-25T07:15:29.968Z,56.76
2019-02-25T07:18:19.278Z,57.62
2019-02-25T07:20:52.994Z,56.78
2019-02-25T07:23:25.522Z,55.92
2019-02-25T07:26:00.698Z,54.87
2019-02-25T07:28:33.277Z,53.70
2019-02-25T07:31:11.885Z,53.76
2019-02-25T07:33:59.209Z,52.94
2019-02-25T07:36:45.564Z,53.35
2019-02-25T07:39:27.497Z,52.85
2019-02-25T07:41:59.998Z,52.13
2019-02-25T07:44:41.117Z,51.67
2019-02-25T07:47:12.997Z,52.76
2019-02-25T07:49:52.722Z,52.03
2019-02-25T07:52:28.982Z,51.84
2019-02-25T07:55:03.314Z,52.16
2019-02-25T07:57:37.545Z,50.98
2019-02-25T08:00:24.374Z,47.94
2019-02-25T08:03:03.733Z,48.13
2019-02-25T08:05:50.986Z,48.54
2019-02-25T08:08:30.253Z,48.12
2019-02-25T08:11:09.646Z,48.01
2019-02-25T08:13:44.730Z,47.80
2019-02-25T08:16:31.972Z,46.51
2019-02-25T08:19:19.219Z,46.14
2019-02-25T08:22:05.573Z,45.30
2019-02-25T08:24:41.395Z,44.80
2019-02-25T08:27:19.627Z,44.08
2019-02-25T08:30:01.420Z,43.47
2019-02-25T08:32:38.213Z,42.90
2019-02-25T08:35:16.269Z,43.42
2019-02-25T08:37:59.623Z,41.39
2019-02-25T08:40:43.259Z,42.31
2019-02-25T08:43:21.045Z,42.03
2019-02-25T08:45:54.642Z,41.74
2019-02-25T08:48:27.641Z,40.92
2019-02-25T08:50:56.211Z,40.22
2019-02-25T08:53:21.137Z,42.45
2019-02-25T08:55:47.922Z,42.19
2019-02-25T08:58:14.658Z,39.76
2019-02-25T09:00:41.370Z,39.60
2019-02-25T09:03:08.221Z,39.82
2019-02-25T09:05:34.946Z,39.25
2019-02-25T09:08:01.673Z,40.32
2019-02-25T09:10:28.398Z,40.57
2019-02-25T09:12:55.178Z,39.36
2019-02-25T09:15:21.901Z,38.44
2019-02-25T09:17:47.869Z,38.41
2019-02-25T09:20:14.651Z,38.50
2019-02-25T09:22:41.381Z,39.37
2019-02-25T09:25:08.418Z,38.03
2019-02-25T09:27:35.157Z,37.95
2019-02-25T09:30:01.910Z,38.96
2019-02-25T09:32:28.662Z,37.23
2019-02-25T09:34:55.390Z,36.25
2019-02-25T09:37:22.194Z,36.90
2019-02-25T09:39:48.915Z,36.13
2019-02-25T09:42:15.656Z,36.68
2019-02-25T09:44:42.378Z,36.66
2019-02-25T09:47:09.094Z,35.04
2019-02-25T09:49:35.981Z,35.57
2019-02-25T09:52:02.702Z,35.44
2019-02-25T09:54:29.434Z,34.63
2019-02-25T09:56:56.146Z,34.31
2019-02-25T09:59:22.886Z,34.10
2019-02-25T10:01:49.606Z,36.41
2019-02-25T10:04:16.350Z,34.02
2019-02-25T10:06:43.150Z,35.41
2019-02-25T10:09:09.906Z,34.16
2019-02-25T10:11:36.625Z,34.57
2019-02-25T10:14:03.390Z,35.08
2019-02-25T10:16:30.106Z,34.28
2019-02-25T10:18:56.865Z,33.89
2019-02-25T10:21:23.582Z,34.30
2019-02-25T10:23:50.329Z,34.86
2019-02-25T10:26:17.575Z,33.87
2019-02-25T10:28:44.309Z,32.78
2019-02-25T10:31:12.721Z,33.97
2019-02-25T10:33:37.819Z,32.54
2019-02-25T10:36:04.542Z,32.51
2019-02-25T10:38:31.277Z,33.64
2019-02-25T10:40:59.381Z,32.61
2019-02-25T10:43:26.112Z,33.66
2019-02-25T10:45:51.442Z,33.56
2019-02-25T10:48:19.951Z,33.40
2019-02-25T10:50:44.894Z,34.08
2019-02-25T10:53:13.577Z,34.67
2019-02-25T10:55:45.013Z,32.80
2019-02-25T10:58:09.605Z,32.86
2019-02-25T11:00:37.817Z,33.16
2019-02-25T11:03:03.194Z,32.70
2019-02-25T11:05:30.470Z,33.35
2019-02-25T11:07:56.806Z,33.87
2019-02-25T11:10:31.958Z,34.69
2019-02-25T11:12:59.932Z,33.90
2019-02-25T11:15:25.437Z,32.80
2019-02-25T11:17:53.792Z,32.73
2019-02-25T11:20:18.976Z,34.33
2019-02-25T11:22:46.164Z,33.53
2019-02-25T11:25:12.574Z,32.35
2019-02-25T11:27:40.009Z,34.48
2019-02-25T11:30:07.158Z,32.86
2019-02-25T11:32:33.972Z,32.04
2019-02-25T11:35:01.378Z,32.66
2019-02-25T11:37:27.431Z,33.88
2019-02-25T11:39:54.940Z,34.53
2019-02-25T11:42:21.094Z,33.17
2019-02-25T11:44:47.807Z,34.01
2019-02-25T11:47:14.550Z,33.91
2019-02-25T11:49:41.290Z,31.21
2019-02-25T11:52:08.061Z,31.69
2019-02-25T11:54:34.798Z,31.25
2019-02-25T11:57:01.598Z,30.89
2019-02-25T11:59:28.346Z,30.77
2019-02-25T12:01:55.281Z,30.70
2019-02-25T12:04:22.013Z,31.45
2019-02-25T12:06:48.762Z,31.63
2019-02-25T12:09:15.507Z,31.58
2019-02-25T12:11:42.227Z,30.96
2019-02-25T12:14:08.997Z,31.52
2019-02-25T12:16:35.725Z,31.41
2019-02-25T12:19:02.473Z,31.20
2019-02-25T12:21:29.206Z,30.95
2019-02-25T12:23:55.945Z,30.83
2019-02-25T12:26:22.662Z,31.81
2019-02-25T12:28:49.414Z,30.38
2019-02-25T12:31:16.137Z,31.12
2019-02-25T12:33:42.849Z,31.00
2019-02-25T12:36:09.583Z,30.71
2019-02-25T12:38:36.310Z,30.89
2019-02-25T12:41:03.038Z,29.70
2019-02-25T12:43:29.858Z,30.44
2019-02-25T12:45:56.639Z,30.65
2019-02-25T12:48:23.442Z,29.98
2019-02-25T12:50:50.206Z,31.15
2019-02-25T12:53:16.922Z,29.67
2019-02-25T12:55:43.658Z,31.16
2019-02-25T12:58:10.408Z,31.20
2019-02-25T13:00:37.143Z,31.51
2019-02-25T13:03:03.863Z,31.16
2019-02-25T13:05:30.622Z,31.25
2019-02-25T13:07:57.346Z,31.40
2019-02-25T13:10:24.098Z,30.86
2019-02-25T13:12:51.745Z,31.42
2019-02-25T13:15:17.560Z,30.95
2019-02-25T13:17:44.280Z,31.73
2019-02-25T13:20:11.053Z,31.62
2019-02-25T13:22:37.778Z,31.12
2019-02-25T13:25:07.885Z,32.78
2019-02-25T13:27:32.442Z,31.89
2019-02-25T13:29:59.299Z,32.27
2019-02-25T13:32:26.101Z,32.20
2019-02-25T13:34:52.837Z,31.23
2019-02-25T13:37:19.586Z,31.00
2019-02-25T13:39:46.341Z,31.52
2019-02-25T13:42:13.174Z,30.74
2019-02-25T13:44:40.025Z,31.98
2019-02-25T13:47:06.737Z,31.02
2019-02-25T13:49:33.494Z,32.51
2019-02-25T13:52:00.215Z,32.87
2019-02-25T13:54:29.214Z,32.13
2019-02-25T13:56:53.725Z,31.17
2019-02-25T13:59:20.458Z,33.02
2019-02-25T14:01:47.314Z,31.91
2019-02-25T14:04:14.034Z,33.02
2019-02-25T14:06:40.822Z,34.00
2019-02-25T14:09:08.127Z,34.03
2019-02-25T14:11:34.876Z,31.73
2019-02-25T14:14:01.594Z,31.41
2019-02-25T14:16:28.332Z,33.33
2019-02-25T14:18:55.086Z,32.55
2019-02-25T14:21:21.841Z,32.28
2019-02-25T14:23:48.663Z,34.06
2019-02-25T14:26:15.406Z,33.26
2019-02-25T14:28:42.146Z,33.91
2019-02-25T14:31:08.894Z,33.96
2019-02-25T14:33:35.998Z,33.82
2019-02-25T14:36:02.439Z,33.84
2019-02-25T14:38:29.926Z,34.84
2019-02-25T14:40:56.802Z,33.92
2019-02-25T14:43:24.965Z,33.77
2019-02-25T14:45:53.716Z,32.41
2019-02-25T14:48:20.329Z,33.82
2019-02-25T14:50:42.879Z,32.95
2019-02-25T14:53:11.394Z,33.49
2019-02-25T14:55:36.338Z,32.68
2019-02-25T14:58:05.318Z,33.03
2019-02-25T15:00:32.802Z,32.96
2019-02-25T15:02:56.623Z,33.35
2019-02-25T15:05:23.360Z,34.23
2019-02-25T15:07:51.161Z,33.87
2019-02-25T15:10:16.837Z,35.05
2019-02-25T15:12:43.585Z,33.64
2019-02-25T15:15:10.986Z,34.25
2019-02-25T15:17:37.729Z,33.86
2019-02-25T15:20:04.626Z,35.72
2019-02-25T15:22:32.035Z,36.32
2019-02-25T15:24:59.497Z,35.30
2019-02-25T15:27:24.942Z,35.00
2019-02-25T15:29:51.674Z,35.80
2019-02-25T15:32:18.414Z,36.78
2019-02-25T15:34:46.551Z,37.91
2019-02-25T15:37:13.777Z,37.18
2019-02-25T15:39:41.872Z,36.79
2019-02-25T15:42:05.345Z,37.32
2019-02-25T15:44:32.086Z,37.66
2019-02-25T15:47:00.244Z,37.69
2019-02-25T15:49:26.071Z,38.67
2019-02-25T15:51:52.429Z,39.26
2019-02-25T15:54:19.142Z,39.47
2019-02-25T15:56:45.869Z,39.36
2019-02-25T15:59:12.633Z,38.46
2019-02-25T16:01:39.374Z,38.83
2019-02-25T16:04:07.129Z,38.82
2019-02-25T16:06:33.538Z,38.65
2019-02-25T16:09:00.868Z,40.14
2019-02-25T16:11:26.297Z,40.30
2019-02-25T16:13:53.551Z,39.42
2019-02-25T16:16:20.082Z,39.13
2019-02-25T16:21:26.618Z,42.24
2019-02-25T16:23:51.955Z,43.29
2019-02-25T16:26:20.119Z,44.34
2019-02-25T16:28:45.539Z,46.69
2019-02-25T16:31:14.827Z,47.28
2019-02-25T16:33:40.011Z,45.80
2019-02-25T16:36:07.865Z,46.29
2019-02-25T16:38:34.656Z,44.57
2019-02-25T16:41:00.919Z,45.10
2019-02-25T16:43:27.094Z,47.12
2019-02-25T16:45:53.874Z,46.72
2019-02-25T16:48:24.247Z,47.42
2019-02-25T16:50:47.542Z,47.17
2019-02-25T16:53:15.426Z,47.53
2019-02-25T16:55:42.792Z,49.26
2019-02-25T16:58:12.453Z,48.85
2019-02-25T17:00:35.488Z,49.71
2019-02-25T17:03:03.725Z,49.85
2019-02-25T17:05:28.299Z,49.28
2019-02-25T17:07:56.142Z,49.19
2019-02-25T17:10:24.073Z,49.49
2019-02-25T17:12:50.026Z,47.56
2019-02-25T17:15:15.538Z,46.86
2019-02-25T17:17:42.278Z,48.14
2019-02-25T17:20:13.010Z,49.29
2019-02-25T17:22:37.530Z,51.11
2019-02-25T17:25:08.154Z,50.99
2019-02-25T17:27:31.090Z,50.13
2019-02-25T17:29:59.726Z,49.22
2019-02-25T17:32:25.458Z,49.04
2019-02-25T17:34:51.354Z,49.26
2019-02-25T17:37:18.082Z,50.42
2019-02-25T17:39:44.901Z,50.24
2019-02-25T17:42:11.803Z,52.88
2019-02-25T17:44:38.806Z,54.08
2019-02-25T17:47:06.712Z,52.42
2019-02-25T17:49:32.322Z,52.58
2019-02-25T17:51:59.875Z,50.68
2019-02-25T17:54:25.289Z,50.18
2019-02-25T17:56:51.994Z,52.25
2019-02-25T17:59:18.776Z,49.70
2019-02-25T18:01:46.291Z,48.30
2019-02-25T18:04:12.194Z,49.60
2019-02-25T18:06:40.983Z,51.15
2019-02-25T18:09:07.188Z,50.00
2019-02-25T18:11:33.898Z,52.42
2019-02-25T18:14:00.635Z,52.05
2019-02-25T18:16:27.371Z,51.42
2019-02-25T18:18:54.449Z,50.27
2019-02-25T18:21:20.825Z,49.88
2019-02-25T18:23:49.413Z,49.55
2019-02-25T18:26:14.877Z,50.24
2019-02-25T18:28:42.068Z,49.71
2019-02-25T18:31:10.821Z,49.99
2019-02-25T18:33:34.821Z,50.78
2019-02-25T18:36:02.423Z,51.29
2019-02-25T18:38:29.574Z,51.24
2019-02-25T18:40:55.017Z,51.31
2019-02-25T18:43:22.581Z,53.24
2019-02-25T18:45:48.502Z,54.64
2019-02-25T18:48:16.831Z,52.06
2019-02-25T18:50:44.841Z,53.92
2019-02-25T18:53:08.753Z,54.43
2019-02-25T18:55:35.478Z,53.09
2019-02-25T18:58:02.218Z,53.33
2019-02-25T19:00:32.206Z,52.78
2019-02-25T19:03:00.344Z,51.28
2019-02-25T19:05:27.158Z,50.83
2019-02-25T19:07:53.292Z,49.39
2019-02-25T19:10:20.480Z,50.98
2019-02-25T19:12:47.973Z,52.31
2019-02-25T19:15:12.874Z,53.43
2019-02-25T19:17:39.601Z,53.06
2019-02-25T19:20:06.466Z,53.39
2019-02-25T19:22:33.959Z,52.52
2019-02-25T19:25:00.056Z,52.63
2019-02-25T19:27:27.783Z,52.60
2019-02-25T19:29:57.437Z,52.62
2019-02-25T19:32:20.942Z,53.22
2019-02-25T19:34:47.339Z,51.86
2019-02-25T19:37:14.526Z,52.97
2019-02-25T19:39:41.474Z,51.79
2019-02-25T19:42:07.740Z,51.63
2019-02-25T19:44:36.309Z,52.65
2019-02-25T19:47:01.350Z,51.71
2019-02-25T19:49:28.086Z,50.23
2019-02-25T19:51:54.918Z,49.59
2019-02-25T19:54:21.653Z,50.60
2019-02-25T19:56:50.672Z,52.04
2019-02-25T19:59:15.218Z,51.66
2019-02-25T20:01:41.946Z,50.79
2019-02-25T20:04:09.153Z,50.67
2019-02-25T20:06:35.434Z,50.59
2019-02-25T20:09:02.202Z,51.91
2019-02-25T20:11:29.012Z,53.11
2019-02-25T20:13:55.772Z,52.75
2019-02-25T20:16:22.959Z,52.58
2019-02-25T20:18:49.201Z,53.07
2019-02-25T20:21:15.925Z,52.76
2019-02-25T20:23:42.661Z,53.96
2019-02-25T20:26:11.293Z,55.50
2019-02-25T20:28:36.126Z,56.37
2019-02-25T20:31:02.844Z,56.87
2019-02-25T20:33:31.932Z,57.36
2019-02-25T20:35:58.368Z,58.78
2019-02-25T20:38:26.852Z,59.45
2019-02-25T20:40:51.223Z,58.55
2019-02-25T20:43:19.298Z,59.42
2019-02-25T20:45:43.226Z,58.36
2019-02-25T20:48:09.958Z,58.50
2019-02-25T20:50:36.708Z,58.43
2019-02-25T20:53:05.941Z,58.50
2019-02-25T20:55:31.723Z,58.21
2019-02-25T20:57:56.882Z,58.33
2019-02-25T21:00:23.626Z,59.73
2019-02-25T21:02:50.348Z,60.45
2019-02-25T21:05:19.493Z,59.82
2019-02-25T21:07:43.838Z,60.29
2019-02-25T21:10:11.359Z,58.28
2019-02-25T21:12:38.122Z,58.95
2019-02-25T21:15:05.126Z,58.60
2019-02-25T21:17:33.225Z,59.16
2019-02-25T21:20:00.245Z,58.01
2019-02-25T21:22:27.263Z,56.73
2019-02-25T21:24:55.740Z,56.78
2019-02-25T21:27:18.879Z,56.37
2019-02-25T21:29:45.589Z,55.48
2019-02-25T21:32:15.047Z,54.51
2019-02-25T21:34:39.046Z,54.18
2019-02-25T21:37:05.769Z,55.22
2019-02-25T21:39:34.319Z,54.65
2019-02-25T21:41:59.264Z,54.27
2019-02-25T21:44:28.473Z,55.37
2019-02-25T21:46:54.013Z,54.93
2019-02-25T21:49:20.239Z,54.60
2019-02-25T21:51:48.005Z,54.42
2019-02-25T21:54:12.994Z,54.54
2019-02-25T21:56:39.718Z,55.54
2019-02-25T21:59:08.282Z,56.87
2019-02-25T22:01:34.612Z,57.41
2019-02-25T22:04:00.497Z,58.28
2019-02-25T22:06:29.036Z,58.82
2019-02-25T22:08:54.574Z,58.20
2019-02-25T22:11:22.182Z,58.19
2019-02-25T22:13:47.450Z,58.84
2019-02-25T22:16:14.193Z,58.12
2019-02-25T22:18:40.926Z,58.06
2019-02-25T22:21:09.423Z,57.28
2019-02-25T22:23:35.436Z,56.85
2019-02-25T22:26:01.163Z,56.72
2019-02-25T22:28:28.819Z,57.38
2019-02-25T22:30:54.622Z,58.09
2019-02-25T22:33:27.443Z,58.04
2019-02-25T22:35:49.914Z,58.58
2019-02-25T22:38:14.869Z,58.92
2019-02-25T22:40:41.606Z,59.27
2019-02-25T22:43:10.069Z,57.85
2019-02-25T22:45:36.004Z,58.21
2019-02-25T22:48:01.785Z,58.56
2019-02-25T22:50:29.137Z,58.71
2019-02-25T22:52:58.433Z,58.97
2019-02-25T22:55:22.709Z,58.16
2019-02-25T22:57:53.525Z,58.41
2019-02-25T23:00:25.754Z,58.39
2019-02-25T23:02:54.513Z,57.97
2019-02-25T23:05:21.125Z,57.91
2019-02-25T23:07:47.994Z,58.76
2019-02-25T23:10:13.364Z,58.91
2019-02-25T23:12:39.486Z,58.43
2019-02-25T23:15:06.274Z,59.17
2019-02-25T23:17:35.107Z,60.18
2019-02-25T23:20:00.140Z,60.90
2019-02-25T23:22:28.088Z,61.62
2019-02-25T23:24:53.182Z,61.30
2019-02-25T23:27:19.929Z,59.86
2019-02-25T23:29:48.283Z,57.77
2019-02-25T23:32:15.362Z,58.30
2019-02-25T23:34:42.612Z,58.23
2019-02-25T23:37:08.407Z,58.79
2019-02-25T23:39:36.018Z,57.89
2019-02-25T23:42:00.668Z,58.08
2019-02-25T23:44:27.137Z,57.68
2019-02-25T23:46:57.639Z,58.58
2019-02-25T23:49:27.055Z,58.69
2019-02-25T23:51:48.121Z,60.43
2019-02-25T23:54:16.008Z,60.72
2019-02-25T23:56:40.802Z,62.90
2019-02-25T23:59:10.765Z,63.14
